Wetter

Nordholz:

METAR:

2019/01/16 12:20 ETMN 161220Z 25016G30KT 6000 BKN006 BKN012 07/06 Q1002 YLO GRN TEMPO YLO

TAF:

2019/01/16 12:31 TAF ETMN 161120Z 1612/1621 24015G25KT 9000 NSW BKN008 OVC010 TEMPO 1612/1621 22018G28KT 2000 DZRA BKN003 OVC005

Wind EDXN:

16.01. 11:00z 220/18G30kt
16.01. 11:10z 230/17G25kt
16.01. 11:20z 230/21G27kt
16.01. 11:30z 220/20G28kt
16.01. 11:40z 230/24G30kt
16.01. 11:50z 230/17G29kt
16.01. 12:00z 230/15G26kt
16.01. 12:10z 230/19G26kt
16.01. 12:20z 230/21G30kt
16.01. 12:30z 230/17G28kt

Bremen:

METAR:

2019/01/16 12:20 EDDW 161220Z 23019KT 9999 OVC011 07/05 Q1004 TEMPO BKN009

TAF:

2019/01/16 12:27 TAF TAF EDDW 161100Z 1612/1712 24012KT 9999 BKN012 BKN030 TEMPO 1612/1710 25015G25KT TEMPO 1612/1702 4000 DZRA BKN006 BECMG 1702/1704 SCT012 BKN020 TEMPO 1710/1712 26020G30KT 4000 SHRA BKN012CB

Hamburg:

METAR:

2019/01/16 12:20 EDDH 161220Z 23017KT 9999 -DZ FEW008 BKN009 07/05 Q1003 TEMPO 24015G25KT

TAF:

2019/01/16 12:29 TAF AMD EDDH 161223Z 1612/1718 24012KT 9999 BKN012 BKN030 TEMPO 1612/1712 25015G25KT TEMPO 1612/1703 4000 DZRA BKN008 BECMG 1703/1706 SCT012 BKN020 TEMPO 1712/1718 27020G30KT 4000 SHRA BKN012CB

Hannover:

METAR:

2019/01/16 12:20 EDDV 161220Z 24015KT 210V270 9999 BKN018 07/04 Q1006 TEMPO 24015G25KT BKN012

TAF:

2019/01/16 12:27 TAF EDDV 161100Z 1612/1712 24012KT 9999 BKN015 BKN030 TEMPO 1612/1712 25015G25KT TEMPO 1612/1624 BKN012 TEMPO 1700/1704 4000 RADZ BKN010

Wikipedia Artikel: METARTAF

Daten von Aviation Weather Center der NOAA, es kann keine Garantie für Aktualität und Richtigkeit der Daten übernommen werden.

Die Nutzung dieser Daten zur Flugplanung ist nicht zulässig!

Inoffizielle ATIS 🙂